Home   Weather   Romania   Craiova   Past weeks
Flag for Romania

Past Weather in Craiova, Romania — Yesterday and Last 2 Weeks

Currently: 68 °F. Clear. (Weather station: Craiova Airport, Romania). See more current weather

Past Weather in Craiova — Graph

°F

Craiova Temperature Yesterday

Maximum temperature yesterday: 84 °F (at 4:00 pm)
Minimum temperature yesterday: 66 °F (at 12:30 am)
Average temperature yesterday: 73 °F

High & Low Weather Summary for the Past Weeks

 TemperatureHumidityPressure
High95 °F (Jul 13, 3:30 pm)100% (Jul 20, 8:00 am)30.07 "Hg (Jul 20, 8:00 am)
Low57 °F (Jul 22, 6:00 am)20% (Jul 10, 7:00 pm)29.65 "Hg (Jul 18, 6:00 pm)
Average78 °F51%29.90 "Hg
* Reported Jul 9 11:00 pm — Jul 24 11:30 pm, Craiova. Weather by CustomWeather, © 2021

Note: Actual official high and low records may vary slightly from our data, if they occured in-between our weather recording intervals... More about our weather records

Craiova Weather History for the Previous 24 Hours

Scroll right to see more
 ConditionsComfort  
Time TempWeatherWind HumidityBarometerVisibility
11:30 pm
Sat, Jul 24
68 °FClear.3 mph69%30.01 "Hg10 mi
11:00 pm70 °FClear.3 mph64%30.01 "Hg10 mi
10:30 pm72 °FClear.1 mph61%30.01 "Hg10 mi
10:00 pm73 °FClear.2 mph53%30.01 "Hg10 mi
9:30 pm73 °FClear.2 mph53%30.01 "Hg10 mi
9:00 pm75 °FClear.7 mph50%29.98 "Hg10 mi
8:30 pm77 °FSunny.6 mph44%29.98 "Hg10 mi
8:00 pm79 °FSunny.5 mph42%29.98 "Hg10 mi
7:30 pm81 °FSunny.6 mph37%29.98 "Hg10 mi
7:00 pm82 °FPassing clouds.6 mph32%29.98 "HgN/A
6:30 pm84 °FPassing clouds.2 mph31%29.98 "HgN/A
6:00 pm84 °FSunny.2 mph29%29.98 "Hg10 mi
5:30 pm84 °FSunny.5 mph29%29.98 "Hg10 mi
5:00 pm82 °FPassing clouds.8 mph30%29.98 "HgN/A
4:30 pm84 °FSunny.5 mph31%29.98 "Hg10 mi
4:00 pm84 °FPassing clouds.7 mph31%29.98 "HgN/A
3:30 pm82 °FSunny.6 mph32%29.98 "Hg10 mi
3:00 pm82 °FSunny.5 mph32%29.98 "Hg10 mi
2:30 pm82 °FPassing clouds.7 mph35%30.01 "HgN/A
2:00 pm81 °FPassing clouds.8 mph37%30.01 "HgN/A
1:30 pm81 °FPassing clouds.6 mph39%30.01 "HgN/A
1:00 pm77 °FPassing clouds.5 mph44%30.01 "HgN/A
12:30 pm75 °FPassing clouds.5 mph47%30.01 "HgN/A
12:00 pm73 °FPassing clouds.6 mph57%30.01 "HgN/A
11:30 am72 °FSunny.7 mph65%30.01 "Hg10 mi
11:00 am70 °FSunny.7 mph69%30.01 "Hg10 mi
10:30 am70 °FSunny.7 mph69%30.01 "Hg10 mi
10:00 am70 °FSunny.9 mph64%30.01 "Hg10 mi
9:30 am70 °FSunny.9 mph69%30.01 "Hg10 mi
9:00 am68 °FSunny.9 mph69%30.01 "Hg10 mi
8:30 am68 °FSunny.8 mph73%29.98 "Hg10 mi
8:00 am68 °FSunny.12 mph73%29.98 "Hg10 mi
7:30 am66 °FSunny.10 mph73%29.98 "Hg10 mi
7:00 am68 °FSunny.12 mph69%29.98 "Hg10 mi
6:30 am66 °FSunny.9 mph78%29.98 "Hg10 mi
6:00 am66 °FClear.9 mph78%29.98 "Hg10 mi
5:30 am66 °FClear.7 mph78%29.98 "Hg10 mi
5:00 am66 °FClear.5 mph78%29.98 "Hg10 mi
4:30 am66 °FLight rain. Clear.7 mph78%29.98 "HgN/A
4:00 am66 °FClear.5 mph78%29.98 "Hg10 mi
3:30 am66 °FClear.5 mph73%29.98 "Hg10 mi
3:00 am66 °FClear.3 mph73%29.98 "Hg10 mi
2:30 am66 °FClear.2 mph73%29.98 "Hg10 mi
2:00 am66 °FPassing clouds.No wind73%29.98 "HgN/A
1:30 am66 °FClear.3 mph68%29.98 "Hg10 mi
1:00 am66 °FClear.5 mph64%29.98 "Hg10 mi
12:30 am66 °FClear.6 mph64%29.98 "Hg10 mi
12:00 am68 °FClear.6 mph60%29.98 "Hg10 mi
Weather by CustomWeather, © 2021

See weather overview